createdAt,value
2023-02-02T00:02:01.099Z,100351.38
2023-02-02T00:04:30.130Z,100376.19
2023-02-02T00:06:57.704Z,100375.75
2023-02-02T00:09:28.833Z,100373.78
2023-02-02T00:11:56.330Z,100367.41
2023-02-02T00:14:23.573Z,100373.72
2023-02-02T00:16:54.553Z,100367.47
2023-02-02T00:19:27.640Z,100355.72
2023-02-02T00:21:55.458Z,100355.00
2023-02-02T00:24:22.985Z,100360.47
2023-02-02T00:26:53.811Z,100371.25
2023-02-02T00:29:23.280Z,100353.34
2023-02-02T00:31:50.367Z,100354.03
2023-02-02T00:34:17.640Z,100363.44
2023-02-02T00:36:47.865Z,100358.25
2023-02-02T00:39:18.522Z,100356.59
2023-02-02T00:41:45.693Z,100362.63
2023-02-02T00:44:30.816Z,100375.06
2023-02-02T00:46:57.357Z,100374.41
2023-02-02T00:49:24.068Z,100380.38
2023-02-02T00:51:50.924Z,100388.66
2023-02-02T00:54:17.531Z,100388.03
2023-02-02T00:56:44.248Z,100382.66
2023-02-02T00:59:11.500Z,100378.53
2023-02-02T01:01:38.191Z,100377.38
2023-02-02T01:04:05.622Z,100375.34
2023-02-02T01:06:32.168Z,100386.78
2023-02-02T01:08:58.711Z,100380.97
2023-02-02T01:11:25.767Z,100396.91
2023-02-02T01:13:53.573Z,100403.41
2023-02-02T01:16:22.406Z,100398.53
2023-02-02T01:18:50.750Z,100403.19
2023-02-02T01:21:17.388Z,100386.94
2023-02-02T01:23:44.426Z,100402.84
2023-02-02T01:26:12.330Z,100404.25
2023-02-02T01:28:39.434Z,100404.97
2023-02-02T01:31:08.880Z,100416.50
2023-02-02T01:33:36.185Z,100425.28
2023-02-02T01:36:06.890Z,100424.94
2023-02-02T01:38:34.006Z,100433.28
2023-02-02T01:41:01.386Z,100428.19
2023-02-02T01:43:31.193Z,100438.63
2023-02-02T01:45:58.859Z,100442.53
2023-02-02T01:48:29.541Z,100443.72
2023-02-02T01:51:00.477Z,100446.66
2023-02-02T01:53:28.282Z,100443.19
2023-02-02T01:55:55.284Z,100443.50
2023-02-02T01:58:28.146Z,100452.81
2023-02-02T02:00:54.822Z,100452.81
2023-02-02T02:03:25.046Z,100464.66
2023-02-02T02:05:58.568Z,100452.16
2023-02-02T02:08:54.862Z,100450.38
2023-02-02T02:11:22.563Z,100458.41
2023-02-02T02:14:09.350Z,100455.72
2023-02-02T02:16:58.339Z,100461.56
2023-02-02T02:20:11.826Z,100458.47
2023-02-02T02:23:19.274Z,100481.66
2023-02-02T02:26:29.699Z,100486.69
2023-02-02T02:29:11.600Z,100486.16
2023-02-02T02:32:23.542Z,100483.91
2023-02-02T02:34:56.270Z,100494.50
2023-02-02T02:37:33.455Z,100491.75
2023-02-02T02:40:08.401Z,100503.38
2023-02-02T02:42:41.643Z,100501.41
2023-02-02T02:45:11.382Z,100498.00
2023-02-02T02:47:39.206Z,100509.59
2023-02-02T02:50:06.425Z,100505.09
2023-02-02T02:52:34.850Z,100502.13
2023-02-02T02:55:03.016Z,100509.88
2023-02-02T02:57:54.433Z,100517.75
2023-02-02T03:01:02.626Z,100512.47
2023-02-02T03:03:41.940Z,100514.09
2023-02-02T03:06:21.578Z,100516.00
2023-02-02T03:09:06.389Z,100521.06
2023-02-02T03:11:34.995Z,100525.94
2023-02-02T03:14:01.935Z,100527.13
2023-02-02T03:16:28.436Z,100528.56
2023-02-02T03:18:56.077Z,100526.91
2023-02-02T03:21:23.072Z,100525.03
2023-02-02T03:23:49.636Z,100535.97
2023-02-02T03:26:16.646Z,100533.47
2023-02-02T03:28:43.629Z,100539.81
2023-02-02T03:31:10.256Z,100543.63
2023-02-02T03:33:37.938Z,100545.16
2023-02-02T03:36:05.661Z,100546.13
2023-02-02T03:38:32.141Z,100548.25
2023-02-02T03:40:58.665Z,100556.50
2023-02-02T03:43:25.332Z,100547.88
2023-02-02T03:46:00.234Z,100553.78
2023-02-02T03:48:27.656Z,100575.00
2023-02-02T03:50:54.290Z,100565.50
2023-02-02T03:53:21.289Z,100561.47
2023-02-02T03:55:47.776Z,100567.06
2023-02-02T03:58:14.655Z,100574.22
2023-02-02T04:00:41.325Z,100576.41
2023-02-02T04:03:07.877Z,100577.78
2023-02-02T04:05:34.436Z,100580.41
2023-02-02T04:08:01.568Z,100587.19
2023-02-02T04:10:28.067Z,100589.47
2023-02-02T04:12:54.607Z,100592.91
2023-02-02T04:15:21.163Z,100597.63
2023-02-02T04:17:47.659Z,100603.28
2023-02-02T04:20:14.250Z,100600.28
2023-02-02T04:22:40.752Z,100610.31
2023-02-02T04:25:07.607Z,100615.78
2023-02-02T04:27:34.228Z,100614.06
2023-02-02T04:30:00.870Z,100614.03
2023-02-02T04:32:27.374Z,100612.84
2023-02-02T04:34:53.862Z,100621.63
2023-02-02T04:37:20.433Z,100617.03
2023-02-02T04:39:48.324Z,100621.59
2023-02-02T04:42:14.810Z,100626.75
2023-02-02T04:44:41.573Z,100624.59
2023-02-02T04:47:08.077Z,100632.94
2023-02-02T04:49:34.580Z,100627.81
2023-02-02T04:52:01.265Z,100630.56
2023-02-02T04:54:27.785Z,100632.44
2023-02-02T04:56:54.429Z,100633.44
2023-02-02T04:59:21.032Z,100640.94
2023-02-02T05:01:48.187Z,100636.34
2023-02-02T05:04:14.701Z,100639.84
2023-02-02T05:06:41.571Z,100644.59
2023-02-02T05:09:08.551Z,100633.97
2023-02-02T05:11:35.475Z,100650.09
2023-02-02T05:14:01.969Z,100648.75
2023-02-02T05:16:29.327Z,100642.03
2023-02-02T05:18:56.882Z,100643.84
2023-02-02T05:21:23.734Z,100645.16
2023-02-02T05:23:50.415Z,100647.53
2023-02-02T05:26:22.103Z,100657.38
2023-02-02T05:28:49.118Z,100654.91
2023-02-02T05:31:15.794Z,100649.41
2023-02-02T05:33:42.623Z,100667.09
2023-02-02T05:36:09.376Z,100668.25
2023-02-02T05:38:36.492Z,100658.66
2023-02-02T05:41:03.878Z,100665.81
2023-02-02T05:43:32.047Z,100676.00
2023-02-02T05:45:59.036Z,100674.81
2023-02-02T05:48:26.016Z,100681.16
2023-02-02T05:51:21.345Z,100683.47
2023-02-02T05:53:47.893Z,100685.78
2023-02-02T05:56:15.713Z,100680.41
2023-02-02T05:58:43.174Z,100675.91
2023-02-02T06:01:10.031Z,100680.47
2023-02-02T06:03:36.594Z,100698.16
2023-02-02T06:06:04.882Z,100691.63
2023-02-02T06:08:33.154Z,100691.88
2023-02-02T06:10:59.649Z,100687.66
2023-02-02T06:13:26.243Z,100688.84
2023-02-02T06:15:52.931Z,100691.31
2023-02-02T06:18:19.462Z,100697.03
2023-02-02T06:20:46.973Z,100699.06
2023-02-02T06:23:13.494Z,100701.91
2023-02-02T06:25:40.017Z,100704.16
2023-02-02T06:28:07.668Z,100712.44
2023-02-02T06:30:34.276Z,100710.69
2023-02-02T06:33:00.821Z,100717.81
2023-02-02T06:35:27.682Z,100719.13
2023-02-02T06:37:54.623Z,100725.59
2023-02-02T06:40:21.130Z,100727.88
2023-02-02T06:42:47.624Z,100740.72
2023-02-02T06:45:14.619Z,100731.06
2023-02-02T06:47:41.595Z,100732.13
2023-02-02T06:50:09.303Z,100736.84
2023-02-02T06:52:36.208Z,100738.63
2023-02-02T06:55:02.699Z,100744.53
2023-02-02T06:57:29.264Z,100741.69
2023-02-02T06:59:56.429Z,100745.34
2023-02-02T07:02:23.343Z,100743.34
2023-02-02T07:04:49.901Z,100751.13
2023-02-02T07:07:16.441Z,100751.53
2023-02-02T07:09:43.103Z,100751.44
2023-02-02T07:12:09.633Z,100762.16
2023-02-02T07:14:36.141Z,100762.56
2023-02-02T07:17:02.839Z,100762.78
2023-02-02T07:19:29.593Z,100776.25
2023-02-02T07:21:56.104Z,100770.28
2023-02-02T07:24:22.689Z,100770.13
2023-02-02T07:26:49.264Z,100777.84
2023-02-02T07:29:15.777Z,100787.78
2023-02-02T07:31:42.766Z,100793.66
2023-02-02T07:34:09.406Z,100796.16
2023-02-02T07:36:36.241Z,100794.94
2023-02-02T07:39:05.100Z,100800.34
2023-02-02T07:41:33.453Z,100799.28
2023-02-02T07:44:00.035Z,100803.53
2023-02-02T07:46:26.626Z,100807.31
2023-02-02T07:48:55.562Z,100809.91
2023-02-02T07:51:22.610Z,100824.97
2023-02-02T07:53:51.501Z,100824.13
2023-02-02T07:56:23.817Z,100835.66
2023-02-02T07:58:55.537Z,100829.25
2023-02-02T08:01:23.770Z,100827.91
2023-02-02T08:03:50.565Z,100835.00
2023-02-02T08:06:23.241Z,100829.34
2023-02-02T08:08:50.950Z,100835.53
2023-02-02T08:11:20.277Z,100842.03
2023-02-02T08:13:52.560Z,100838.28
2023-02-02T08:16:19.904Z,100844.56
2023-02-02T08:18:46.984Z,100847.59
2023-02-02T08:21:14.481Z,100839.28
2023-02-02T08:23:41.708Z,100852.19
2023-02-02T08:26:17.917Z,100856.47
2023-02-02T08:28:47.404Z,100864.59
2023-02-02T08:31:21.529Z,100863.47
2023-02-02T08:33:48.728Z,100867.84
2023-02-02T08:36:19.943Z,100868.78
2023-02-02T08:38:46.804Z,100874.06
2023-02-02T08:41:16.303Z,100875.00
2023-02-02T08:43:43.384Z,100874.16
2023-02-02T08:46:11.726Z,100881.63
2023-02-02T08:48:38.791Z,100883.50
2023-02-02T08:51:07.336Z,100889.97
2023-02-02T08:53:34.696Z,100892.47
2023-02-02T08:56:07.339Z,100890.81
2023-02-02T08:58:34.801Z,100901.41
2023-02-02T09:01:12.912Z,100901.22
2023-02-02T09:03:40.335Z,100907.44
2023-02-02T09:06:08.631Z,100903.97
2023-02-02T09:08:35.215Z,100912.50
2023-02-02T09:11:10.198Z,100904.31
2023-02-02T09:13:38.484Z,100915.75
2023-02-02T09:16:08.252Z,100914.91
2023-02-02T09:18:34.805Z,100920.75
2023-02-02T09:21:04.515Z,100928.09
2023-02-02T09:23:32.579Z,100931.16
2023-02-02T09:26:19.028Z,100938.31
2023-02-02T09:28:48.641Z,100945.94
2023-02-02T09:31:15.594Z,100965.13
2023-02-02T09:33:42.897Z,100961.84
2023-02-02T09:36:21.483Z,100963.50
2023-02-02T09:38:49.705Z,100972.19
2023-02-02T09:41:37.675Z,100975.78
2023-02-02T09:44:22.277Z,100981.78
2023-02-02T09:47:12.383Z,100980.03
2023-02-02T09:49:54.154Z,100971.53
2023-02-02T09:52:27.715Z,100979.06
2023-02-02T09:55:10.861Z,100972.41
2023-02-02T09:57:43.255Z,100977.59
2023-02-02T10:00:33.688Z,100979.41
2023-02-02T10:03:12.090Z,100990.91
2023-02-02T10:06:06.239Z,101005.97
2023-02-02T10:08:42.515Z,100992.72
2023-02-02T10:11:27.077Z,100994.25
2023-02-02T10:13:58.542Z,101002.63
2023-02-02T10:16:25.445Z,101003.44
2023-02-02T10:19:05.085Z,101013.84
2023-02-02T10:21:46.489Z,101007.31
2023-02-02T10:24:20.207Z,101012.31
2023-02-02T10:26:50.534Z,101018.72
2023-02-02T10:29:47.977Z,101032.41
2023-02-02T10:32:34.030Z,101034.63
2023-02-02T10:35:20.053Z,101028.75
2023-02-02T10:38:21.066Z,101022.09
2023-02-02T10:41:17.773Z,101021.81
2023-02-02T10:44:09.035Z,101016.94
2023-02-02T10:46:40.486Z,101022.13
2023-02-02T10:49:06.978Z,101027.47
2023-02-02T10:51:34.112Z,101042.16
2023-02-02T10:54:05.121Z,101044.66
2023-02-02T10:56:37.573Z,101054.03
2023-02-02T10:59:14.122Z,101048.38
2023-02-02T11:01:41.037Z,101061.72
2023-02-02T11:04:29.534Z,101062.78
2023-02-02T11:06:56.358Z,101050.75
2023-02-02T11:09:32.353Z,101050.47
2023-02-02T11:12:13.807Z,101042.69
2023-02-02T11:14:49.520Z,101044.72
2023-02-02T11:17:22.343Z,101044.03
2023-02-02T11:19:50.000Z,101042.59
2023-02-02T11:22:46.306Z,101052.09
2023-02-02T11:25:32.403Z,101053.34
2023-02-02T11:27:58.972Z,101051.47
2023-02-02T11:30:35.500Z,101056.78
2023-02-02T11:33:20.827Z,101053.75
2023-02-02T11:35:54.194Z,101054.16
2023-02-02T11:38:21.618Z,101045.84
2023-02-02T11:41:03.705Z,101039.81
2023-02-02T11:43:36.294Z,101037.81
2023-02-02T11:46:05.812Z,101033.47
2023-02-02T11:48:39.704Z,101039.22
2023-02-02T11:51:09.989Z,101042.09
2023-02-02T11:54:05.968Z,101047.19
2023-02-02T11:56:35.171Z,101052.72
2023-02-02T11:59:03.902Z,101046.28
2023-02-02T12:01:39.826Z,101047.16
2023-02-02T12:04:15.801Z,101049.66
2023-02-02T12:06:42.414Z,101051.38
2023-02-02T12:09:21.531Z,101055.38
2023-02-02T12:12:02.926Z,101057.38
2023-02-02T12:14:41.890Z,101064.53
2023-02-02T12:17:14.548Z,101057.09
2023-02-02T12:19:59.296Z,101064.53
2023-02-02T12:22:45.991Z,101066.31
2023-02-02T12:25:51.802Z,101057.19
2023-02-02T12:28:39.196Z,101054.13
2023-02-02T12:31:26.541Z,101062.91
2023-02-02T12:34:17.089Z,101060.75
2023-02-02T12:36:56.942Z,101053.75
2023-02-02T12:39:47.514Z,101061.97
2023-02-02T12:42:25.715Z,101054.41
2023-02-02T12:45:23.893Z,101051.34
2023-02-02T12:48:21.676Z,101053.69
2023-02-02T12:51:06.270Z,101049.88
2023-02-02T12:54:32.600Z,101052.56
2023-02-02T12:56:52.060Z,101060.13
2023-02-02T12:59:30.500Z,101069.28
2023-02-02T13:02:05.154Z,101070.44
2023-02-02T13:04:59.845Z,101071.69
2023-02-02T13:07:43.978Z,101071.88
2023-02-02T13:10:21.670Z,101062.09
2023-02-02T13:13:09.505Z,101072.34
2023-02-02T13:15:40.056Z,101066.97
2023-02-02T13:18:14.766Z,101075.63
2023-02-02T13:20:45.666Z,101069.75
2023-02-02T13:23:27.309Z,101071.00
2023-02-02T13:26:01.201Z,101084.03
2023-02-02T13:28:36.401Z,101068.56
2023-02-02T13:31:09.794Z,101082.97
2023-02-02T13:33:37.950Z,101079.81
2023-02-02T13:36:25.608Z,101078.66
2023-02-02T13:38:58.399Z,101087.22
2023-02-02T13:41:26.108Z,101090.31
2023-02-02T13:44:13.646Z,101088.59
2023-02-02T13:46:51.486Z,101097.09
2023-02-02T13:49:24.374Z,101099.47
2023-02-02T13:51:57.586Z,101083.91
2023-02-02T13:54:47.742Z,101088.47
2023-02-02T13:57:35.906Z,101082.69
2023-02-02T14:00:25.662Z,101100.44
2023-02-02T14:03:03.740Z,101098.69
2023-02-02T14:05:34.749Z,101107.56
2023-02-02T14:08:06.712Z,101113.19
2023-02-02T14:10:39.796Z,101103.53
2023-02-02T14:13:32.315Z,101109.63
2023-02-02T14:16:01.943Z,101111.97
2023-02-02T14:18:50.755Z,101120.09
2023-02-02T14:21:32.627Z,101118.69
2023-02-02T14:24:02.958Z,101123.38
2023-02-02T14:26:46.431Z,101108.59
2023-02-02T14:29:31.464Z,101125.72
2023-02-02T14:32:00.077Z,101132.84
2023-02-02T14:34:30.597Z,101130.78
2023-02-02T14:37:24.881Z,101128.75
2023-02-02T14:39:57.380Z,101130.88
2023-02-02T14:42:58.966Z,101128.00
2023-02-02T14:45:39.262Z,101130.81
2023-02-02T14:48:22.462Z,101135.75
2023-02-02T14:50:55.856Z,101138.94
2023-02-02T14:53:37.609Z,101151.22
2023-02-02T14:56:09.533Z,101162.53
2023-02-02T14:58:39.938Z,101156.81
2023-02-02T15:01:25.043Z,101156.03
2023-02-02T15:04:00.447Z,101152.31
2023-02-02T15:06:34.218Z,101153.19
2023-02-02T15:09:19.469Z,101158.41
2023-02-02T15:12:04.419Z,101165.94
2023-02-02T15:15:02.180Z,101163.66
2023-02-02T15:17:41.575Z,101173.81
2023-02-02T15:20:22.808Z,101179.88
2023-02-02T15:23:22.681Z,101177.25
2023-02-02T15:25:59.167Z,101187.75
2023-02-02T15:28:47.088Z,101180.94
2023-02-02T15:31:34.909Z,101185.28
2023-02-02T15:34:10.054Z,101191.50
2023-02-02T15:36:42.116Z,101186.38
2023-02-02T15:39:19.361Z,101191.72
2023-02-02T15:41:49.629Z,101193.91
2023-02-02T15:44:21.739Z,101197.03
2023-02-02T15:46:49.198Z,101203.47
2023-02-02T15:49:31.706Z,101207.38
2023-02-02T15:52:03.207Z,101211.41
2023-02-02T15:54:35.079Z,101225.72
2023-02-02T15:57:02.838Z,101221.84
2023-02-02T15:59:38.865Z,101223.31
2023-02-02T16:02:08.152Z,101233.13
2023-02-02T16:04:37.293Z,101229.84
2023-02-02T16:07:06.699Z,101230.31
2023-02-02T16:09:35.617Z,101229.81
2023-02-02T16:12:05.168Z,101244.38
2023-02-02T16:14:36.134Z,101241.63
2023-02-02T16:17:23.896Z,101245.97
2023-02-02T16:19:56.918Z,101252.09
2023-02-02T16:22:25.324Z,101256.03
2023-02-02T16:24:55.669Z,101264.78
2023-02-02T16:27:26.701Z,101271.31
2023-02-02T16:29:56.633Z,101271.31
2023-02-02T16:32:29.945Z,101275.53
2023-02-02T16:34:57.165Z,101271.97
2023-02-02T16:37:29.415Z,101267.28
2023-02-02T16:39:58.082Z,101256.03
2023-02-02T16:42:31.688Z,101252.13
2023-02-02T16:44:59.832Z,101247.34
2023-02-02T16:47:26.437Z,101251.16
2023-02-02T16:50:14.576Z,101255.31
2023-02-02T16:53:02.775Z,101257.72
2023-02-02T16:55:47.994Z,101256.25
2023-02-02T16:58:22.894Z,101261.91
2023-02-02T17:01:13.995Z,101258.41
2023-02-02T17:03:49.106Z,101259.41
2023-02-02T17:06:15.648Z,101258.47
2023-02-02T17:08:42.144Z,101261.59
2023-02-02T17:11:25.397Z,101259.53
2023-02-02T17:13:53.681Z,101261.91
2023-02-02T17:16:22.921Z,101262.25
2023-02-02T17:18:50.964Z,101271.06
2023-02-02T17:21:21.126Z,101266.47
2023-02-02T17:23:51.441Z,101266.00
2023-02-02T17:26:18.185Z,101270.66
2023-02-02T17:28:44.729Z,101268.97
2023-02-02T17:31:16.327Z,101270.22
2023-02-02T17:33:43.528Z,101265.25
2023-02-02T17:36:13.125Z,101278.38
2023-02-02T17:38:39.874Z,101280.31
2023-02-02T17:41:07.063Z,101277.88
2023-02-02T17:43:33.580Z,101281.47
2023-02-02T17:46:00.161Z,101285.66
2023-02-02T17:48:27.063Z,101283.94
2023-02-02T17:50:53.706Z,101277.44
2023-02-02T17:53:21.851Z,101280.06
2023-02-02T17:55:50.252Z,101282.13
2023-02-02T17:58:17.862Z,101285.59
2023-02-02T18:00:47.807Z,101281.91
2023-02-02T18:03:24.823Z,101277.59
2023-02-02T18:05:52.109Z,101271.91
2023-02-02T18:08:19.303Z,101269.25
2023-02-02T18:10:46.594Z,101258.25
2023-02-02T18:13:19.237Z,101262.19
2023-02-02T18:15:46.425Z,101257.09
2023-02-02T18:18:13.106Z,101269.19
2023-02-02T18:20:43.696Z,101262.06
2023-02-02T18:23:11.025Z,101272.28
2023-02-02T18:25:39.413Z,101274.03
2023-02-02T18:28:07.458Z,101283.19
2023-02-02T18:30:34.539Z,101287.97
2023-02-02T18:33:01.223Z,101286.94
2023-02-02T18:35:28.312Z,101282.47
2023-02-02T18:37:54.929Z,101286.50
2023-02-02T18:40:21.462Z,101282.16
2023-02-02T18:42:48.718Z,101280.94
2023-02-02T18:45:15.267Z,101275.19
2023-02-02T18:47:41.787Z,101271.75
2023-02-02T18:50:08.929Z,101269.72
2023-02-02T18:52:35.530Z,101262.72
2023-02-02T18:55:02.330Z,101251.00
2023-02-02T18:57:30.414Z,101250.72
2023-02-02T18:59:56.931Z,101259.03
2023-02-02T19:02:25.383Z,101253.78
2023-02-02T19:05:10.622Z,101257.97
2023-02-02T19:07:55.941Z,101241.16
2023-02-02T19:10:27.204Z,101248.59
2023-02-02T19:13:09.853Z,101249.22
2023-02-02T19:15:39.246Z,101252.72
2023-02-02T19:18:13.707Z,101249.00
2023-02-02T19:20:40.665Z,101246.78
2023-02-02T19:23:12.935Z,101239.28
2023-02-02T19:25:41.019Z,101235.38
2023-02-02T19:28:23.595Z,101228.66
2023-02-02T19:30:53.964Z,101230.50
2023-02-02T19:33:21.012Z,101231.91
2023-02-02T19:35:51.571Z,101218.91
2023-02-02T19:38:21.236Z,101214.97
2023-02-02T19:40:47.995Z,101204.13
2023-02-02T19:43:26.975Z,101214.50
2023-02-02T19:45:56.376Z,101200.53
2023-02-02T19:48:27.896Z,101204.00
2023-02-02T19:50:55.735Z,101199.50
2023-02-02T19:53:25.159Z,101203.88
2023-02-02T19:55:52.743Z,101196.28
2023-02-02T19:58:21.125Z,101193.84
2023-02-02T20:00:50.198Z,101184.84
2023-02-02T20:03:27.256Z,101182.06
2023-02-02T20:05:57.339Z,101188.00
2023-02-02T20:08:31.841Z,101187.31
2023-02-02T20:11:00.784Z,101187.19
2023-02-02T20:13:47.914Z,101176.75
2023-02-02T20:16:18.468Z,101163.75
2023-02-02T20:18:48.778Z,101164.03
2023-02-02T20:21:22.502Z,101163.22
2023-02-02T20:23:49.219Z,101162.38
2023-02-02T20:26:28.973Z,101149.91
2023-02-02T20:28:58.610Z,101154.50
2023-02-02T20:31:34.507Z,101142.81
2023-02-02T20:34:01.591Z,101144.66
2023-02-02T20:36:40.591Z,101143.09
2023-02-02T20:39:31.913Z,101138.66
2023-02-02T20:41:59.461Z,101131.28
2023-02-02T20:44:28.678Z,101126.66
2023-02-02T20:46:56.580Z,101128.81
2023-02-02T20:49:25.480Z,101119.94
2023-02-02T20:51:54.416Z,101122.50
2023-02-02T20:54:21.293Z,101123.47
2023-02-02T20:56:48.015Z,101116.34
2023-02-02T20:59:14.651Z,101110.38
2023-02-02T21:01:41.723Z,101109.97
2023-02-02T21:04:08.868Z,101112.78
2023-02-02T21:06:37.519Z,101104.69
2023-02-02T21:09:05.594Z,101099.69
2023-02-02T21:11:32.126Z,101097.31
2023-02-02T21:13:59.873Z,101093.34
2023-02-02T21:16:26.520Z,101099.94
2023-02-02T21:18:53.423Z,101098.19
2023-02-02T21:21:22.462Z,101099.03
2023-02-02T21:23:51.977Z,101091.00
2023-02-02T21:26:22.280Z,101099.41
2023-02-02T21:28:49.357Z,101095.22
2023-02-02T21:31:17.123Z,101089.66
2023-02-02T21:33:47.873Z,101094.59
2023-02-02T21:36:15.762Z,101087.63
2023-02-02T21:38:42.274Z,101094.97
2023-02-02T21:41:14.145Z,101091.72
2023-02-02T21:43:41.414Z,101084.31
2023-02-02T21:46:17.860Z,101088.34
2023-02-02T21:48:45.919Z,101075.47
2023-02-02T21:51:32.113Z,101078.00
2023-02-02T21:53:59.196Z,101074.47
2023-02-02T21:56:28.468Z,101072.84
2023-02-02T21:58:59.211Z,101067.00
2023-02-02T22:01:34.624Z,101062.75
2023-02-02T22:04:01.282Z,101058.88
2023-02-02T22:06:30.826Z,101062.97
2023-02-02T22:09:12.405Z,101059.41
2023-02-02T22:11:55.820Z,101056.78
2023-02-02T22:14:37.085Z,101037.81
2023-02-02T22:17:20.701Z,101033.66
2023-02-02T22:19:47.980Z,101031.28
2023-02-02T22:22:23.356Z,101025.19
2023-02-02T22:24:59.982Z,101017.75
2023-02-02T22:27:40.675Z,101022.34
2023-02-02T22:30:20.859Z,101018.06
2023-02-02T22:32:47.480Z,101017.81
2023-02-02T22:35:14.236Z,101006.44
2023-02-02T22:37:40.757Z,101006.00
2023-02-02T22:40:08.421Z,100998.91
2023-02-02T22:42:34.922Z,100997.28
2023-02-02T22:45:01.447Z,100987.09
2023-02-02T22:47:28.012Z,100982.75
2023-02-02T22:49:54.507Z,100978.06
2023-02-02T22:52:21.237Z,100975.66
2023-02-02T22:54:47.725Z,100972.25
2023-02-02T22:57:14.765Z,100974.59
2023-02-02T22:59:41.318Z,100973.38
2023-02-02T23:02:07.909Z,100975.47
2023-02-02T23:04:34.411Z,100961.69
2023-02-02T23:07:00.985Z,100954.91
2023-02-02T23:09:27.465Z,100955.59
2023-02-02T23:11:53.959Z,100954.06
2023-02-02T23:14:20.449Z,100954.75
2023-02-02T23:16:47.079Z,100947.25
2023-02-02T23:19:13.621Z,100938.03
2023-02-02T23:21:40.384Z,100926.44
2023-02-02T23:24:07.381Z,100932.41
2023-02-02T23:26:33.938Z,100932.97
2023-02-02T23:29:00.795Z,100933.78
2023-02-02T23:31:27.387Z,100920.53
2023-02-02T23:33:53.984Z,100923.09
2023-02-02T23:36:20.505Z,100926.81
2023-02-02T23:38:47.013Z,100926.28
2023-02-02T23:41:13.664Z,100926.59
2023-02-02T23:43:42.920Z,100921.13
2023-02-02T23:46:10.998Z,100923.59
2023-02-02T23:48:37.830Z,100910.88
2023-02-02T23:51:04.417Z,100914.31
2023-02-02T23:53:30.933Z,100912.25
2023-02-02T23:55:57.548Z,100912.09
2023-02-02T23:58:24.071Z,100902.66
